Time;durP1;ratioP1;P1;durP2;ratioP2;P2;SDS_P1;SDS_P2;PMS_P1;PMS_P2;Temp;Humidity;BMP_temperature;BMP_pressure;BME280_temperature;BME280_humidity;BME280_pressure;Samples;Min_cycle;Max_cycle;Signal;HPM_P1;HPM_P2
2022/08/14 00:00:42;;;;;;;13.50;7.80;;;23.00;99.90;;;;;;5020462;28;20292;-74
2022/08/14 00:03:17;;;;;;;11.07;7.70;;;23.00;99.90;;;;;;5013457;28;20269;-75
2022/08/14 00:05:44;;;;;;;12.57;7.37;;;23.00;99.90;;;;;;5013559;28;20212;-75
2022/08/14 00:08:11;;;;;;;18.63;8.53;;;23.00;99.90;;;;;;5013142;28;20263;-75
2022/08/14 00:10:38;;;;;;;10.50;7.97;;;23.00;99.90;;;;;;5013300;28;20245;-75
2022/08/14 00:13:05;;;;;;;12.60;7.90;;;23.00;99.90;;;;;;5013533;28;20243;-75
2022/08/14 00:15:37;;;;;;;12.50;7.87;;;23.00;99.90;;;;;;5013425;28;20222;-74
2022/08/14 00:18:05;;;;;;;14.90;8.10;;;23.00;99.90;;;;;;5014285;28;20214;-78
2022/08/14 00:20:35;;;;;;;9.50;7.33;;;23.00;99.90;;;;;;5012389;28;20735;-75
2022/08/14 00:23:02;;;;;;;12.07;7.67;;;23.00;99.90;;;;;;5012968;28;20749;-75
2022/08/14 00:25:29;;;;;;;12.93;7.97;;;23.00;99.90;;;;;;5012714;28;20298;-75
2022/08/14 00:27:56;;;;;;;12.63;7.47;;;23.00;99.90;;;;;;5012977;28;20247;-76
2022/08/14 00:30:23;;;;;;;16.40;7.80;;;23.00;99.90;;;;;;5012492;28;20229;-75
2022/08/14 00:32:51;;;;;;;12.23;7.73;;;22.90;99.90;;;;;;5012597;28;20212;-75
2022/08/14 00:35:18;;;;;;;12.10;7.73;;;22.90;99.90;;;;;;5013251;28;20216;-76
2022/08/14 00:37:46;;;;;;;10.30;7.40;;;22.90;99.90;;;;;;5012270;28;20234;-77
2022/08/14 00:40:16;;;;;;;11.57;7.37;;;22.90;99.90;;;;;;5013170;28;20289;-76
2022/08/14 00:42:43;;;;;;;13.07;8.07;;;22.90;99.90;;;;;;5012961;28;20298;-75
2022/08/14 00:45:13;;;;;;;12.50;7.83;;;22.90;99.90;;;;;;5012760;28;20296;-76
2022/08/14 00:47:41;;;;;;;10.40;7.53;;;22.90;99.90;;;;;;5013247;28;20243;-75
2022/08/14 00:50:13;;;;;;;10.27;7.23;;;22.90;99.90;;;;;;5020627;28;20689;-75
2022/08/14 00:52:40;;;;;;;12.97;7.60;;;22.90;99.90;;;;;;5032355;28;20280;-75
2022/08/14 00:55:09;;;;;;;14.20;7.90;;;22.90;99.90;;;;;;5032622;28;20255;-75
2022/08/14 00:57:37;;;;;;;13.07;7.40;;;22.90;99.90;;;;;;5032719;28;20732;-75
2022/08/14 01:00:11;;;;;;;11.27;7.27;;;22.80;99.90;;;;;;5032086;28;20304;-75
2022/08/14 01:02:40;;;;;;;12.40;7.50;;;22.80;99.90;;;;;;5032283;28;20200;-75
2022/08/14 01:05:22;;;;;;;12.70;7.57;;;22.80;99.90;;;;;;5031964;28;20355;-72
2022/08/14 01:07:50;;;;;;;11.00;7.50;;;22.80;99.90;;;;;;5031709;28;20221;-75
2022/08/14 01:10:18;;;;;;;14.17;7.87;;;22.80;99.90;;;;;;5031989;28;20227;-75
2022/08/14 01:12:47;;;;;;;11.87;7.00;;;22.80;99.90;;;;;;5032559;28;20296;-73
2022/08/14 01:15:15;;;;;;;13.30;7.33;;;22.80;99.90;;;;;;5032470;28;20277;-74
2022/08/14 01:23:13;;;;;;;10.33;7.40;;;22.80;99.90;;;;;;5022499;28;20673;-76
2022/08/14 01:25:40;;;;;;;10.10;7.10;;;22.80;99.90;;;;;;5035167;28;20210;-74
2022/08/14 01:28:09;;;;;;;12.37;7.03;;;22.80;99.90;;;;;;5035874;28;20302;-74
2022/08/14 01:30:37;;;;;;;14.60;7.60;;;22.80;99.90;;;;;;5035837;28;20224;-75
2022/08/14 01:33:05;;;;;;;11.73;7.77;;;22.80;99.90;;;;;;5036132;28;20211;-76
2022/08/14 01:35:32;;;;;;;10.83;6.97;;;22.70;99.90;;;;;;5036278;28;20218;-77
2022/08/14 01:37:59;;;;;;;11.90;7.73;;;22.70;99.90;;;;;;5036374;28;20326;-74
2022/08/14 01:40:30;;;;;;;11.27;7.20;;;22.70;99.90;;;;;;5035607;28;20254;-75
2022/08/14 01:42:57;;;;;;;9.80;6.87;;;22.70;99.90;;;;;;5034788;28;20571;-74
2022/08/14 01:45:24;;;;;;;11.30;7.50;;;22.70;99.90;;;;;;5036171;28;20717;-74
2022/08/14 01:47:51;;;;;;;15.10;7.03;;;22.70;99.90;;;;;;5035852;28;20209;-75
2022/08/14 01:50:18;;;;;;;11.37;7.33;;;22.70;99.90;;;;;;5025621;28;20267;-75
2022/08/14 01:52:46;;;;;;;9.93;7.23;;;22.70;99.90;;;;;;5016232;28;20294;-76
2022/08/14 01:55:16;;;;;;;12.57;7.57;;;22.70;99.90;;;;;;5015738;28;20208;-75
2022/08/14 01:57:45;;;;;;;13.73;7.50;;;22.70;99.90;;;;;;5015986;28;20238;-75
2022/08/14 02:00:17;;;;;;;12.97;7.13;;;22.70;99.90;;;;;;5016192;28;20298;-75
2022/08/14 02:02:45;;;;;;;12.80;7.30;;;22.70;99.90;;;;;;5016090;28;20193;-79
2022/08/14 02:05:13;;;;;;;9.70;6.90;;;22.70;99.90;;;;;;5015615;28;20296;-73
2022/08/14 02:07:42;;;;;;;11.33;7.30;;;22.70;99.90;;;;;;5015420;28;20207;-73
2022/08/14 02:10:11;;;;;;;11.73;7.40;;;22.70;99.90;;;;;;5015299;28;20319;-74
2022/08/14 02:12:38;;;;;;;12.90;7.10;;;22.70;99.90;;;;;;5015756;28;20297;-74
2022/08/14 02:15:08;;;;;;;10.93;6.83;;;22.70;99.90;;;;;;5016011;28;20642;-74
2022/08/14 02:17:35;;;;;;;11.47;7.60;;;22.70;99.90;;;;;;5015369;28;20291;-74
2022/08/14 02:20:02;;;;;;;13.33;7.83;;;22.70;99.90;;;;;;5015079;28;20839;-74
2022/08/14 02:22:29;;;;;;;12.53;7.50;;;22.60;99.90;;;;;;5014723;28;20238;-73
2022/08/14 02:24:56;;;;;;;9.83;7.03;;;22.60;99.90;;;;;;5015207;28;20206;-73
2022/08/14 02:27:23;;;;;;;11.30;7.13;;;22.60;99.90;;;;;;5015042;28;20244;-75
2022/08/14 02:29:53;;;;;;;11.40;7.37;;;22.50;99.90;;;;;;5014265;28;20259;-75
2022/08/14 02:32:21;;;;;;;11.87;7.27;;;22.50;99.90;;;;;;5017526;28;20658;-75
2022/08/14 02:34:48;;;;;;;11.60;7.50;;;22.50;99.90;;;;;;5034521;28;20398;-75
2022/08/14 02:37:15;;;;;;;12.50;7.17;;;22.50;99.90;;;;;;5034406;28;20325;-74
2022/08/14 02:39:43;;;;;;;13.60;7.43;;;22.40;99.90;;;;;;5034750;28;20652;-75
2022/08/14 02:42:12;;;;;;;11.07;7.13;;;22.40;99.90;;;;;;5034520;28;20689;-74
2022/08/14 02:44:39;;;;;;;12.40;7.37;;;22.40;99.90;;;;;;5034640;28;20297;-73
2022/08/14 02:47:07;;;;;;;11.53;7.50;;;22.40;99.90;;;;;;5034246;28;20210;-74
2022/08/14 02:49:36;;;;;;;10.03;7.10;;;22.40;99.90;;;;;;5029610;28;20449;-75
2022/08/14 02:52:06;;;;;;;12.13;7.53;;;22.30;99.90;;;;;;5014272;28;20307;-73
2022/08/14 02:54:34;;;;;;;14.50;7.47;;;22.30;99.90;;;;;;5014804;28;20213;-74
2022/08/14 02:57:05;;;;;;;10.90;7.43;;;22.30;99.90;;;;;;5014625;28;20677;-75
2022/08/14 02:59:33;;;;;;;9.73;6.83;;;22.20;99.90;;;;;;5014750;28;20233;-73
2022/08/14 03:02:00;;;;;;;11.13;6.97;;;22.20;99.90;;;;;;5013936;28;20302;-73
2022/08/14 03:04:28;;;;;;;8.07;6.87;;;22.20;99.90;;;;;;5014127;28;20295;-73
2022/08/14 03:06:57;;;;;;;12.93;7.50;;;22.20;99.90;;;;;;5014966;28;20311;-73
2022/08/14 03:09:24;;;;;;;11.57;7.37;;;22.10;99.90;;;;;;5013965;28;20213;-73
2022/08/14 03:11:51;;;;;;;11.83;7.27;;;22.10;99.90;;;;;;5013857;28;20202;-73
2022/08/14 03:14:19;;;;;;;11.00;7.70;;;22.10;99.90;;;;;;5013521;28;20217;-73
2022/08/14 03:16:48;;;;;;;14.03;7.13;;;22.10;99.90;;;;;;5013357;28;20606;-74
2022/08/14 03:19:15;;;;;;;12.63;7.57;;;22.00;99.90;;;;;;5014284;28;20246;-74
2022/08/14 03:21:42;;;;;;;10.70;7.43;;;22.00;99.90;;;;;;5013838;28;20206;-74
2022/08/14 03:24:11;;;;;;;10.17;6.90;;;22.00;99.90;;;;;;5014218;28;20246;-74
2022/08/14 03:26:39;;;;;;;11.73;7.83;;;22.00;99.90;;;;;;5013884;28;20203;-73
2022/08/14 03:29:08;;;;;;;10.83;7.83;;;22.00;99.90;;;;;;5013510;28;20324;-74
2022/08/14 03:31:37;;;;;;;13.17;8.37;;;22.00;99.90;;;;;;5013575;28;20280;-75
2022/08/14 03:34:04;;;;;;;11.13;7.53;;;22.00;99.90;;;;;;5013374;28;20207;-74
2022/08/14 03:36:32;;;;;;;10.77;7.63;;;22.00;99.90;;;;;;5013499;28;20231;-74
2022/08/14 03:38:59;;;;;;;10.57;7.50;;;22.00;99.90;;;;;;5013259;28;20217;-74
2022/08/14 03:41:28;;;;;;;13.07;7.77;;;22.00;99.90;;;;;;5013624;28;20212;-73
2022/08/14 03:43:57;;;;;;;10.80;7.67;;;22.00;99.90;;;;;;5013218;28;20306;-75
2022/08/14 03:46:26;;;;;;;16.50;8.43;;;22.00;99.90;;;;;;5013624;28;20294;-74
2022/08/14 03:48:54;;;;;;;10.50;7.50;;;22.00;99.90;;;;;;5013052;28;20230;-74
2022/08/14 03:51:27;;;;;;;12.93;7.37;;;22.00;99.90;;;;;;5031474;28;20226;-74
2022/08/14 03:53:56;;;;;;;11.87;7.30;;;22.00;99.90;;;;;;5032799;28;20190;-73
2022/08/14 03:56:25;;;;;;;10.17;6.93;;;22.00;99.90;;;;;;5033320;28;20565;-74
2022/08/14 03:58:55;;;;;;;11.37;7.47;;;22.10;99.90;;;;;;5032053;28;20604;-74
2022/08/14 04:01:24;;;;;;;11.03;7.17;;;22.10;99.90;;;;;;5032903;28;20193;-74
2022/08/14 04:03:56;;;;;;;9.83;7.40;;;22.10;99.90;;;;;;5032015;28;20214;-74
2022/08/14 04:06:23;;;;;;;10.70;7.20;;;22.10;99.90;;;;;;5032086;28;20696;-74
2022/08/14 04:08:52;;;;;;;12.13;7.63;;;22.10;99.90;;;;;;5033402;28;20245;-75
2022/08/14 04:11:19;;;;;;;12.23;8.20;;;22.10;99.90;;;;;;5033536;28;20238;-73
2022/08/14 04:13:47;;;;;;;10.23;7.53;;;22.10;99.90;;;;;;5033392;28;20273;-73
2022/08/14 04:16:19;;;;;;;14.73;8.03;;;22.00;99.90;;;;;;5031699;28;20241;-76
2022/08/14 04:18:49;;;;;;;14.20;7.57;;;22.00;99.90;;;;;;5032774;28;20791;-74
2022/08/14 04:21:17;;;;;;;13.70;7.40;;;22.00;99.90;;;;;;5032620;28;20192;-72
2022/08/14 04:23:45;;;;;;;10.50;7.37;;;22.00;99.90;;;;;;5032218;28;20221;-74
2022/08/14 04:26:13;;;;;;;10.40;7.57;;;22.00;99.90;;;;;;5032341;28;20204;-74
2022/08/14 04:28:41;;;;;;;13.37;7.43;;;21.90;99.90;;;;;;5031643;28;20243;-74
2022/08/14 04:31:08;;;;;;;11.73;7.23;;;21.90;99.90;;;;;;5031147;28;20322;-74
2022/08/14 04:33:37;;;;;;;11.30;7.03;;;21.80;99.90;;;;;;5031624;28;20293;-74
2022/08/14 04:36:05;;;;;;;14.60;8.07;;;21.80;99.90;;;;;;5032263;28;20297;-75
2022/08/14 04:44:14;;;;;;;11.57;7.50;;;21.90;99.90;;;;;;5031870;28;20237;-73
2022/08/14 04:48:11;;;;;;;11.30;7.83;;;21.80;99.90;;;;;;5032211;28;20229;-74
2022/08/14 04:49:32;;;;;;;15.00;7.70;;;21.80;99.90;;;;;;5027769;28;20676;-74
2022/08/14 04:51:59;;;;;;;10.60;7.43;;;21.70;99.90;;;;;;5012287;28;20226;-74
2022/08/14 04:54:27;;;;;;;10.13;7.30;;;21.70;99.90;;;;;;5015643;28;20206;-75
2022/08/14 04:56:55;;;;;;;14.90;7.53;;;21.70;99.90;;;;;;5016547;28;20258;-75
2022/08/14 04:59:23;;;;;;;10.83;7.73;;;21.70;99.90;;;;;;5017447;28;20206;-74
2022/08/14 05:01:51;;;;;;;10.77;7.67;;;21.70;99.90;;;;;;5016853;28;20207;-74
2022/08/14 05:04:18;;;;;;;12.37;7.53;;;21.70;99.90;;;;;;5017192;28;20838;-76
2022/08/14 05:06:46;;;;;;;10.30;7.20;;;21.70;99.90;;;;;;5016657;28;20230;-74
2022/08/14 05:09:13;;;;;;;11.70;7.57;;;21.70;99.90;;;;;;5016214;28;20207;-76
2022/08/14 05:11:40;;;;;;;13.00;7.60;;;21.80;99.90;;;;;;5016284;28;20318;-72
2022/08/14 05:14:07;;;;;;;10.80;7.70;;;21.80;99.90;;;;;;5015410;28;20542;-74
2022/08/14 05:16:34;;;;;;;9.20;7.40;;;21.80;99.90;;;;;;4996427;28;20294;-74
2022/08/14 05:19:03;;;;;;;10.80;7.30;;;21.80;99.90;;;;;;4996957;28;20310;-76
2022/08/14 05:21:30;;;;;;;11.97;8.00;;;21.90;99.90;;;;;;4996390;28;20415;-74
2022/08/14 05:23:58;;;;;;;13.33;7.90;;;21.90;99.90;;;;;;5013292;28;20305;-74
2022/08/14 05:26:25;;;;;;;11.97;7.70;;;21.90;99.90;;;;;;5015937;28;20298;-73
2022/08/14 05:28:52;;;;;;;10.00;7.80;;;22.00;99.90;;;;;;5015921;28;20289;-74
2022/08/14 05:31:19;;;;;;;9.80;7.03;;;22.00;99.90;;;;;;5013162;28;20798;-72
2022/08/14 05:33:46;;;;;;;14.43;8.23;;;22.10;99.90;;;;;;5016267;28;20276;-72
2022/08/14 05:36:14;;;;;;;12.50;7.70;;;22.10;99.90;;;;;;5015386;28;20298;-73
2022/08/14 05:38:44;;;;;;;10.50;7.33;;;22.10;99.90;;;;;;5015103;28;20211;-74
2022/08/14 05:41:13;;;;;;;15.67;8.03;;;22.20;99.90;;;;;;5032546;28;20297;-74
2022/08/14 05:43:43;;;;;;;11.53;7.73;;;22.20;99.90;;;;;;5035303;28;20237;-74
2022/08/14 05:46:11;;;;;;;10.77;7.20;;;22.30;99.90;;;;;;5027100;28;20290;-72
2022/08/14 05:48:38;;;;;;;9.83;7.30;;;22.30;99.90;;;;;;5025786;28;20234;-74
2022/08/14 05:51:06;;;;;;;11.17;7.70;;;22.30;99.90;;;;;;5015820;28;20224;-74
2022/08/14 05:53:33;;;;;;;11.40;7.90;;;22.30;99.90;;;;;;5015730;28;20299;-73
2022/08/14 05:56:00;;;;;;;13.43;8.07;;;22.40;99.90;;;;;;5016084;28;20733;-73
2022/08/14 05:58:28;;;;;;;11.90;8.30;;;22.40;99.90;;;;;;5033631;28;20652;-73
2022/08/14 06:00:56;;;;;;;12.10;8.23;;;22.40;99.90;;;;;;5035633;28;20831;-74
2022/08/14 06:03:23;;;;;;;10.40;7.93;;;22.50;99.90;;;;;;5024565;28;20259;-75
2022/08/14 06:05:52;;;;;;;9.23;7.40;;;22.50;99.90;;;;;;5015460;28;20261;-75
2022/08/14 06:08:21;;;;;;;11.73;7.90;;;22.50;99.90;;;;;;5016257;28;20294;-74
2022/08/14 06:10:49;;;;;;;14.10;7.97;;;22.60;99.90;;;;;;5015759;28;20314;-75
2022/08/14 06:13:17;;;;;;;10.50;7.80;;;22.70;99.90;;;;;;5015990;28;20261;-73
2022/08/14 06:15:47;;;;;;;10.37;8.17;;;22.70;99.90;;;;;;5014923;28;20270;-74
2022/08/14 06:18:16;;;;;;;11.70;7.60;;;22.70;99.90;;;;;;5018471;28;20277;-74
2022/08/14 06:20:43;;;;;;;11.00;8.10;;;22.80;99.90;;;;;;5013872;28;20296;-73
2022/08/14 06:23:10;;;;;;;11.83;8.17;;;22.80;99.90;;;;;;5014862;28;20263;-74
2022/08/14 06:25:37;;;;;;;10.67;7.67;;;22.80;99.90;;;;;;5012799;28;20294;-73
2022/08/14 06:28:05;;;;;;;10.73;8.30;;;22.90;99.90;;;;;;5015548;28;20294;-75
2022/08/14 06:30:33;;;;;;;14.27;8.67;;;22.90;99.90;;;;;;5014910;28;20318;-73
2022/08/14 06:33:02;;;;;;;14.47;9.30;;;22.90;99.90;;;;;;5013842;28;20314;-74
2022/08/14 06:35:29;;;;;;;11.60;8.30;;;23.00;99.90;;;;;;5013499;28;20278;-73
2022/08/14 06:37:59;;;;;;;12.33;8.60;;;23.10;99.90;;;;;;5013983;28;20679;-74
2022/08/14 06:40:28;;;;;;;15.27;9.93;;;23.10;99.90;;;;;;5011949;28;20296;-74
2022/08/14 06:42:56;;;;;;;9.83;7.47;;;23.20;99.90;;;;;;5014298;28;20209;-73
2022/08/14 06:45:23;;;;;;;13.07;8.27;;;23.30;99.90;;;;;;5014444;28;20248;-74
2022/08/14 06:47:50;;;;;;;12.03;8.03;;;23.30;99.90;;;;;;5015482;28;20291;-75
2022/08/14 06:50:20;;;;;;;13.57;10.07;;;23.30;99.90;;;;;;5015290;28;20214;-75
2022/08/14 06:52:48;;;;;;;17.83;8.17;;;23.30;99.90;;;;;;5013688;28;20209;-77
2022/08/14 06:55:17;;;;;;;14.17;8.07;;;23.30;99.90;;;;;;5014553;28;20292;-75
2022/08/14 06:57:46;;;;;;;11.60;8.53;;;23.40;99.90;;;;;;5014178;28;20204;-73
2022/08/14 07:00:16;;;;;;;11.03;8.13;;;23.40;99.90;;;;;;5014492;28;20740;-78
2022/08/14 07:05:47;;;;;;;9.97;7.80;;;23.50;99.90;;;;;;5014330;28;20200;-74
2022/08/14 07:08:19;;;;;;;11.07;7.80;;;23.60;99.90;;;;;;5012849;28;20690;-73
2022/08/14 07:10:47;;;;;;;12.50;8.90;;;23.50;99.90;;;;;;5012795;28;20221;-74
2022/08/14 07:13:16;;;;;;;14.10;8.63;;;23.60;99.90;;;;;;5011995;28;20219;-74
2022/08/14 07:15:44;;;;;;;12.77;8.50;;;23.60;99.90;;;;;;5024793;28;20204;-73
2022/08/14 07:18:12;;;;;;;12.50;8.27;;;23.60;99.90;;;;;;5010965;28;20220;-78
2022/08/14 07:20:43;;;;;;;10.37;8.00;;;23.60;99.90;;;;;;5024174;28;20293;-75
2022/08/14 07:23:10;;;;;;;12.87;8.83;;;23.70;99.90;;;;;;5033370;28;20209;-77
2022/08/14 07:25:39;;;;;;;13.37;8.83;;;23.70;99.90;;;;;;5020334;28;20210;-79
2022/08/14 07:28:11;;;;;;;14.93;8.17;;;23.70;99.90;;;;;;5014036;28;20213;-78
2022/08/14 07:30:38;;;;;;;11.73;8.57;;;23.70;99.90;;;;;;5016434;28;20547;-79
2022/08/14 07:33:05;;;;;;;14.63;9.13;;;23.70;99.90;;;;;;5013732;28;20320;-80
2022/08/14 07:35:32;;;;;;;14.07;9.03;;;23.70;99.90;;;;;;5014380;28;20297;-77
2022/08/14 07:38:00;;;;;;;12.63;8.80;;;23.70;99.90;;;;;;5014186;28;20667;-79
2022/08/14 07:40:27;;;;;;;14.33;10.57;;;23.80;99.90;;;;;;5013877;28;20204;-78
2022/08/14 07:42:54;;;;;;;12.60;8.80;;;23.80;99.90;;;;;;5014147;28;20205;-78
2022/08/14 07:45:21;;;;;;;11.40;8.87;;;23.80;99.90;;;;;;5010471;28;20244;-74
2022/08/14 07:47:48;;;;;;;14.57;8.67;;;23.80;99.90;;;;;;5012412;28;20708;-74
2022/08/14 07:50:16;;;;;;;13.37;8.43;;;23.80;99.90;;;;;;5013428;28;20219;-75
2022/08/14 07:52:44;;;;;;;11.13;8.13;;;23.90;99.90;;;;;;5029621;28;20221;-76
2022/08/14 07:55:14;;;;;;;17.93;8.43;;;23.90;99.90;;;;;;5032189;28;20255;-75
2022/08/14 07:57:42;;;;;;;13.73;9.87;;;24.00;99.90;;;;;;5032775;28;20256;-76
2022/08/14 08:00:12;;;;;;;15.40;8.87;;;24.10;99.90;;;;;;5019778;28;20288;-75
2022/08/14 08:02:41;;;;;;;13.13;7.93;;;24.20;99.90;;;;;;5014372;28;20644;-73
2022/08/14 08:05:09;;;;;;;12.37;8.47;;;24.30;99.90;;;;;;5012350;28;20214;-74
2022/08/14 08:07:37;;;;;;;11.87;8.50;;;24.30;99.90;;;;;;5012978;28;20212;-74
2022/08/14 08:12:52;;;;;;;12.93;7.90;;;24.50;99.90;;;;;;5008789;28;20352;-70
2022/08/14 08:15:20;;;;;;;16.60;9.00;;;24.60;99.90;;;;;;5017536;28;20219;-73
2022/08/14 08:17:47;;;;;;;11.10;8.23;;;24.70;99.90;;;;;;5010329;28;20813;-71
2022/08/14 08:20:19;;;;;;;12.80;8.37;;;24.80;99.90;;;;;;5018450;28;20669;-73
2022/08/14 08:22:46;;;;;;;13.30;10.37;;;24.90;99.90;;;;;;5032073;28;20208;-73
2022/08/14 08:25:13;;;;;;;14.13;9.05;;;25.00;99.90;;;;;;5028819;28;20200;-73
2022/08/14 08:27:41;;;;;;;11.95;8.65;;;25.10;99.90;;;;;;5013485;28;20285;-72
2022/08/14 08:30:11;;;;;;;9.87;8.37;;;25.20;99.90;;;;;;5012872;28;20295;-73
2022/08/14 08:32:40;;;;;;;12.32;8.55;;;25.30;99.90;;;;;;5031416;28;20248;-73
2022/08/14 08:35:11;;;;;;;12.10;7.85;;;25.40;99.90;;;;;;5016669;28;20583;-73
2022/08/14 08:37:38;;;;;;;10.13;7.90;;;25.40;99.90;;;;;;5017018;28;20240;-73
2022/08/14 08:40:06;;;;;;;11.15;8.20;;;25.50;99.90;;;;;;5031468;28;20208;-73
2022/08/14 08:42:33;;;;;;;9.68;7.88;;;25.60;99.90;;;;;;5012567;28;20289;-73
2022/08/14 08:45:00;;;;;;;12.80;8.27;;;25.70;99.90;;;;;;5012128;28;20225;-74
2022/08/14 08:47:39;;;;;;;10.95;8.07;;;25.70;99.90;;;;;;5012383;28;20264;-74
2022/08/14 08:50:19;;;;;;;10.57;7.72;;;25.80;99.90;;;;;;5012650;28;20233;-74
2022/08/14 08:52:50;;;;;;;9.57;7.45;;;25.90;99.90;;;;;;5028159;28;20224;-73
2022/08/14 08:55:23;;;;;;;11.02;8.02;;;26.00;99.90;;;;;;5012545;28;20205;-74
2022/08/14 08:57:54;;;;;;;12.05;8.93;;;26.10;99.90;;;;;;5011971;28;20292;-72
2022/08/14 09:00:21;;;;;;;9.27;7.85;;;26.20;99.90;;;;;;5011837;28;20285;-74
2022/08/14 09:02:58;;;;;;;11.48;7.32;;;26.30;99.90;;;;;;5015232;28;20738;-73
2022/08/14 09:05:26;;;;;;;10.93;7.68;;;26.40;99.90;;;;;;5012165;28;20661;-74
2022/08/14 09:07:53;;;;;;;10.75;6.95;;;26.40;99.90;;;;;;5011705;28;20313;-72
2022/08/14 09:10:20;;;;;;;14.50;7.38;;;26.50;99.90;;;;;;5002607;28;20204;-75
2022/08/14 09:12:47;;;;;;;10.80;7.50;;;26.50;99.90;;;;;;5006990;28;20711;-74
2022/08/14 09:15:14;;;;;;;11.15;7.45;;;26.60;99.90;;;;;;4992260;28;20223;-73
2022/08/14 09:17:42;;;;;;;15.90;7.00;;;26.70;99.90;;;;;;5011486;28;20265;-73
2022/08/14 09:20:12;;;;;;;9.98;6.88;;;26.70;99.90;;;;;;5012242;28;20662;-73
2022/08/14 09:22:44;;;;;;;11.18;7.32;;;26.80;99.90;;;;;;5012186;28;20206;-75
2022/08/14 09:25:11;;;;;;;8.73;6.97;;;26.80;99.90;;;;;;5012194;28;20298;-74
2022/08/14 09:27:38;;;;;;;9.73;7.13;;;26.80;99.90;;;;;;5009289;28;20204;-74
2022/08/14 09:30:08;;;;;;;9.55;7.30;;;26.80;99.90;;;;;;5009618;28;20298;-73
2022/08/14 09:32:45;;;;;;;7.57;6.68;;;26.90;99.90;;;;;;5010823;28;20225;-73
2022/08/14 09:35:23;;;;;;;10.27;7.05;;;26.90;99.90;;;;;;5011623;28;20536;-72
2022/08/14 09:38:00;;;;;;;8.65;7.35;;;27.00;99.90;;;;;;5010568;28;20781;-74
2022/08/14 09:40:38;;;;;;;12.18;7.75;;;27.00;99.90;;;;;;5007623;28;20314;-73
2022/08/14 09:43:16;;;;;;;11.48;7.18;;;27.10;99.90;;;;;;5012557;28;20255;-74
2022/08/14 09:45:47;;;;;;;10.77;7.05;;;27.10;99.90;;;;;;5014113;28;20642;-73
2022/08/14 09:48:16;;;;;;;11.75;7.07;;;27.20;99.90;;;;;;5014117;28;20628;-73
2022/08/14 09:50:49;;;;;;;12.40;6.93;;;27.30;99.90;;;;;;5012008;28;20219;-73
2022/08/14 09:53:19;;;;;;;9.65;6.82;;;27.30;99.90;;;;;;5013662;28;20347;-72
2022/08/14 09:55:57;;;;;;;14.32;7.65;;;27.30;99.90;;;;;;5014117;28;20213;-75
2022/08/14 09:58:34;;;;;;;10.55;6.72;;;27.30;99.90;;;;;;5000595;28;20209;-76
2022/08/14 10:01:09;;;;;;;9.98;7.15;;;27.30;99.90;;;;;;5005784;28;20799;-74
2022/08/14 10:03:38;;;;;;;10.23;7.03;;;27.30;99.90;;;;;;4996201;28;20236;-75
2022/08/14 10:06:10;;;;;;;9.75;6.72;;;27.30;99.90;;;;;;4994648;28;20210;-74
2022/08/14 10:08:43;;;;;;;13.88;5.93;;;27.30;99.90;;;;;;4995978;28;20377;-74
2022/08/14 10:11:16;;;;;;;14.20;7.15;;;27.40;99.90;;;;;;4995375;28;20670;-73
2022/08/14 10:13:43;;;;;;;12.45;7.30;;;27.40;99.90;;;;;;4995461;28;20222;-72
2022/08/14 10:16:11;;;;;;;12.13;6.68;;;27.40;99.90;;;;;;4995087;28;20209;-73
2022/08/14 10:18:38;;;;;;;10.50;7.38;;;27.40;99.90;;;;;;4995073;28;20210;-73
2022/08/14 10:21:08;;;;;;;10.27;8.00;;;27.40;99.90;;;;;;4994822;28;20209;-73
2022/08/14 10:23:42;;;;;;;9.68;6.72;;;27.40;99.90;;;;;;4995397;28;20632;-74
2022/08/14 10:26:10;;;;;;;14.00;7.00;;;27.40;99.90;;;;;;4994875;28;20198;-73
2022/08/14 10:28:42;;;;;;;7.50;6.25;;;27.50;99.90;;;;;;4995474;28;20243;-73
2022/08/14 10:31:23;;;;;;;10.25;6.28;;;27.50;99.90;;;;;;4995270;28;20311;-74
2022/08/14 10:34:05;;;;;;;8.70;6.85;;;27.40;99.90;;;;;;4994740;28;20303;-73
2022/08/14 10:36:36;;;;;;;9.10;6.72;;;27.30;99.90;;;;;;4994965;28;20248;-74
2022/08/14 10:39:08;;;;;;;11.75;6.25;;;27.30;99.90;;;;;;4995254;28;20635;-75
2022/08/14 10:41:38;;;;;;;13.57;6.45;;;27.30;99.90;;;;;;4995235;28;20280;-74
2022/08/14 10:44:08;;;;;;;8.35;6.63;;;27.30;99.90;;;;;;4995104;28;20198;-73
2022/08/14 10:46:41;;;;;;;8.05;6.25;;;27.20;99.90;;;;;;4995046;28;20204;-74
2022/08/14 10:49:18;;;;;;;11.18;6.75;;;27.20;99.90;;;;;;4994800;28;20720;-73
2022/08/14 10:52:00;;;;;;;9.20;6.50;;;27.20;99.90;;;;;;4994619;28;20661;-73
2022/08/14 10:54:33;;;;;;;11.32;6.32;;;27.30;99.90;;;;;;4994780;28;20196;-74
2022/08/14 10:57:20;;;;;;;11.25;6.10;;;27.40;99.90;;;;;;4994354;28;20275;-73
2022/08/14 10:59:54;;;;;;;8.57;5.72;;;27.50;99.90;;;;;;4994361;28;20278;-73
2022/08/14 11:02:28;;;;;;;9.15;6.85;;;27.60;99.90;;;;;;4994764;28;20634;-74
2022/08/14 11:05:05;;;;;;;10.57;6.20;;;27.60;99.90;;;;;;4994428;28;20279;-73
2022/08/14 11:07:35;;;;;;;10.55;6.15;;;27.60;99.90;;;;;;4994709;28;20267;-74
2022/08/14 11:10:05;;;;;;;9.40;6.70;;;27.60;99.90;;;;;;4994143;28;20229;-73
2022/08/14 11:12:47;;;;;;;12.02;6.60;;;27.60;99.90;;;;;;4994493;28;20575;-76
2022/08/14 11:15:18;;;;;;;10.40;6.55;;;27.60;99.90;;;;;;4993840;28;20234;-74
2022/08/14 11:17:47;;;;;;;8.80;6.72;;;27.70;99.90;;;;;;4994177;28;20192;-75
2022/08/14 11:20:16;;;;;;;11.23;8.20;;;27.70;99.90;;;;;;4994108;28;20583;-74
2022/08/14 11:22:46;;;;;;;7.47;6.28;;;27.70;99.90;;;;;;4994833;28;20764;-75
2022/08/14 11:25:15;;;;;;;9.80;6.05;;;27.80;99.90;;;;;;4994063;28;20208;-74
2022/08/14 11:27:45;;;;;;;11.43;6.25;;;27.80;99.90;;;;;;4993604;28;20212;-74
2022/08/14 11:30:14;;;;;;;11.65;6.45;;;27.90;99.90;;;;;;4993745;28;20194;-75
2022/08/14 11:32:44;;;;;;;11.38;6.32;;;28.00;99.90;;;;;;4993649;28;20264;-74
2022/08/14 11:35:15;;;;;;;10.35;5.95;;;28.10;99.90;;;;;;4993870;28;20261;-74
2022/08/14 11:37:54;;;;;;;10.88;6.22;;;28.20;99.90;;;;;;4993483;28;20246;-74
2022/08/14 11:40:23;;;;;;;11.27;6.53;;;28.30;99.90;;;;;;4993736;28;20210;-74
2022/08/14 11:42:53;;;;;;;10.52;6.05;;;28.20;99.90;;;;;;4993660;28;20653;-73
2022/08/14 11:45:21;;;;;;;10.00;6.18;;;28.10;99.90;;;;;;4993439;28;20724;-75
2022/08/14 11:47:48;;;;;;;12.10;6.35;;;28.10;99.90;;;;;;4993160;28;20216;-77
2022/08/14 11:50:17;;;;;;;11.60;6.22;;;28.10;99.90;;;;;;4993814;28;20954;-74
2022/08/14 11:52:45;;;;;;;7.57;5.90;;;28.00;99.90;;;;;;4993534;28;20233;-75
2022/08/14 11:55:14;;;;;;;11.73;6.47;;;28.10;99.90;;;;;;4993211;28;20225;-74
2022/08/14 11:57:43;;;;;;;11.10;6.30;;;28.10;99.90;;;;;;4993688;28;20214;-74
2022/08/14 12:00:14;;;;;;;11.60;6.32;;;28.20;99.90;;;;;;4993475;28;20248;-75
2022/08/14 12:02:51;;;;;;;8.75;6.43;;;28.10;99.90;;;;;;4992405;28;20195;-74
2022/08/14 12:05:29;;;;;;;9.60;6.75;;;28.00;99.90;;;;;;4993008;28;20233;-75
2022/08/14 12:07:57;;;;;;;11.70;6.70;;;27.90;99.90;;;;;;4993096;28;20240;-73
2022/08/14 12:10:25;;;;;;;12.55;6.40;;;27.90;99.90;;;;;;4993370;28;20208;-74
2022/08/14 12:12:55;;;;;;;11.10;6.47;;;27.90;99.90;;;;;;4992903;28;20710;-72
2022/08/14 12:15:33;;;;;;;11.90;6.80;;;28.00;99.90;;;;;;4992891;28;20212;-73
2022/08/14 12:18:00;;;;;;;9.45;6.53;;;28.10;99.90;;;;;;4993393;28;20201;-73
2022/08/14 12:20:32;;;;;;;9.88;6.82;;;28.10;99.90;;;;;;4992941;28;20225;-72
2022/08/14 12:23:00;;;;;;;7.68;5.82;;;28.10;99.90;;;;;;5004148;28;20234;-75
2022/08/14 12:25:29;;;;;;;7.03;5.72;;;28.20;99.90;;;;;;5014021;28;20202;-74
2022/08/14 12:27:59;;;;;;;10.05;5.97;;;28.20;99.90;;;;;;5015558;28;20645;-73
2022/08/14 12:30:32;;;;;;;9.68;6.28;;;28.20;99.90;;;;;;5012548;28;20313;-75
2022/08/14 12:33:00;;;;;;;11.40;5.90;;;28.20;99.90;;;;;;5009936;28;20223;-74
2022/08/14 12:35:39;;;;;;;9.45;6.45;;;28.20;99.90;;;;;;5011223;28;20673;-74
2022/08/14 12:38:09;;;;;;;11.95;6.20;;;28.20;99.90;;;;;;5011909;28;20314;-73
2022/08/14 12:40:47;;;;;;;10.88;5.88;;;28.20;99.90;;;;;;5012026;28;20212;-72
2022/08/14 12:43:18;;;;;;;16.02;6.55;;;28.30;99.90;;;;;;5012631;28;20596;-74
2022/08/14 12:45:49;;;;;;;9.40;5.85;;;28.30;99.90;;;;;;5026338;28;20216;-73
2022/08/14 12:48:17;;;;;;;13.52;6.10;;;28.30;99.90;;;;;;5013089;28;20366;-73
2022/08/14 12:50:45;;;;;;;10.27;5.95;;;28.30;99.90;;;;;;5011120;28;20210;-74
2022/08/14 12:53:12;;;;;;;9.52;5.55;;;28.30;99.90;;;;;;5012325;28;20323;-73
2022/08/14 12:55:42;;;;;;;8.50;5.80;;;28.40;99.90;;;;;;5011795;28;20297;-73
2022/08/14 12:58:11;;;;;;;12.27;6.05;;;28.40;99.90;;;;;;5012040;28;20227;-74
2022/08/14 13:00:47;;;;;;;9.23;6.20;;;28.30;99.90;;;;;;5011514;28;20213;-75
2022/08/14 13:03:24;;;;;;;11.40;5.68;;;28.40;99.90;;;;;;5012741;28;20206;-74
2022/08/14 13:05:52;;;;;;;10.98;5.82;;;28.40;99.90;;;;;;5012296;28;20636;-75